createdAt,value
2023-04-20T00:02:15.592Z,3.74
2023-04-20T00:04:42.589Z,3.41
2023-04-20T00:07:09.374Z,3.85
2023-04-20T00:09:35.884Z,3.60
2023-04-20T00:12:02.566Z,3.96
2023-04-20T00:14:29.116Z,3.39
2023-04-20T00:16:55.839Z,3.84
2023-04-20T00:19:22.340Z,4.07
2023-04-20T00:21:49.008Z,3.90
2023-04-20T00:24:15.759Z,3.99
2023-04-20T00:26:42.167Z,3.96
2023-04-20T00:29:08.641Z,4.00
2023-04-20T00:31:35.429Z,4.56
2023-04-20T00:34:02.293Z,4.30
2023-04-20T00:36:29.889Z,4.40
2023-04-20T00:38:56.714Z,4.30
2023-04-20T00:41:23.424Z,4.21
2023-04-20T00:43:54.069Z,4.41
2023-04-20T00:46:21.537Z,4.47
2023-04-20T00:48:50.636Z,4.58
2023-04-20T00:51:18.387Z,4.67
2023-04-20T00:53:44.936Z,4.35
2023-04-20T00:56:12.969Z,4.47
2023-04-20T00:58:39.863Z,4.42
2023-04-20T01:01:07.449Z,4.42
2023-04-20T01:03:34.319Z,4.79
2023-04-20T01:06:01.986Z,4.72
2023-04-20T01:08:28.579Z,4.75
2023-04-20T01:10:56.129Z,5.18
2023-04-20T01:13:23.162Z,4.82
2023-04-20T01:15:50.146Z,4.40
2023-04-20T01:18:19.011Z,4.77
2023-04-20T01:20:47.121Z,4.81
2023-04-20T01:23:13.565Z,4.57
2023-04-20T01:25:40.106Z,4.60
2023-04-20T01:28:06.765Z,4.78
2023-04-20T01:30:34.149Z,5.03
2023-04-20T01:33:00.642Z,5.21
2023-04-20T01:35:27.255Z,5.10
2023-04-20T01:37:53.757Z,4.70
2023-04-20T01:40:20.533Z,5.01
2023-04-20T01:42:47.270Z,5.28
2023-04-20T01:45:13.816Z,5.60
2023-04-20T01:47:40.306Z,5.12
2023-04-20T01:50:07.013Z,5.19
2023-04-20T01:52:33.517Z,5.54
2023-04-20T01:54:59.961Z,5.01
2023-04-20T01:57:26.445Z,5.29
2023-04-20T01:59:52.930Z,5.36
2023-04-20T02:02:19.495Z,5.24
2023-04-20T02:04:46.080Z,5.18
2023-04-20T02:07:12.645Z,5.07
2023-04-20T02:09:39.092Z,5.06
2023-04-20T02:12:05.862Z,5.17
2023-04-20T02:14:32.329Z,4.90
2023-04-20T02:16:59.298Z,5.35
2023-04-20T02:19:25.859Z,5.01
2023-04-20T02:21:52.366Z,4.65
2023-04-20T02:24:18.911Z,5.00
2023-04-20T02:26:45.435Z,4.44
2023-04-20T02:29:11.894Z,4.87
2023-04-20T02:31:38.402Z,4.55
2023-04-20T02:34:06.266Z,4.43
2023-04-20T02:36:32.897Z,4.42
2023-04-20T02:38:59.419Z,4.44
2023-04-20T02:41:25.964Z,4.58
2023-04-20T02:43:52.540Z,4.55
2023-04-20T02:46:19.109Z,4.78
2023-04-20T02:48:45.817Z,4.11
2023-04-20T02:51:12.307Z,4.17
2023-04-20T02:53:38.829Z,4.27
2023-04-20T02:56:05.606Z,4.33
2023-04-20T02:58:32.030Z,4.45
2023-04-20T03:01:02.137Z,4.16
2023-04-20T03:03:29.125Z,4.18
2023-04-20T03:05:56.848Z,4.30
2023-04-20T03:08:23.402Z,3.90
2023-04-20T03:10:49.896Z,4.09
2023-04-20T03:13:16.429Z,4.31
2023-04-20T03:15:43.850Z,4.22
2023-04-20T03:18:10.425Z,3.70
2023-04-20T03:20:36.977Z,3.63
2023-04-20T03:23:03.517Z,3.56
2023-04-20T03:25:30.136Z,3.52
2023-04-20T03:27:56.616Z,3.57
2023-04-20T03:30:23.105Z,3.45
2023-04-20T03:32:49.666Z,3.61
2023-04-20T03:35:17.669Z,3.28
2023-04-20T03:37:44.333Z,3.06
2023-04-20T03:40:11.084Z,3.06
2023-04-20T03:42:37.734Z,3.11
2023-04-20T03:45:05.033Z,3.20
2023-04-20T03:47:31.561Z,2.83
2023-04-20T03:49:58.132Z,3.17
2023-04-20T03:52:24.665Z,2.72
2023-04-20T03:54:51.666Z,2.78
2023-04-20T03:57:18.109Z,2.45
2023-04-20T03:59:44.513Z,3.02
2023-04-20T04:02:13.285Z,2.80
2023-04-20T04:04:40.633Z,2.75
2023-04-20T04:07:07.558Z,2.50
2023-04-20T04:09:34.097Z,2.69
2023-04-20T04:12:01.369Z,2.48
2023-04-20T04:14:30.140Z,2.64
2023-04-20T04:16:56.699Z,2.54
2023-04-20T04:19:23.234Z,2.53
2023-04-20T04:21:49.672Z,2.49
2023-04-20T04:24:17.521Z,2.33
2023-04-20T04:26:44.048Z,2.67
2023-04-20T04:29:10.577Z,2.40
2023-04-20T04:31:37.168Z,2.43
2023-04-20T04:34:03.775Z,2.42
2023-04-20T04:36:30.408Z,2.52
2023-04-20T04:38:56.967Z,2.39
2023-04-20T04:41:23.559Z,2.37
2023-04-20T04:43:50.043Z,2.37
2023-04-20T04:46:16.628Z,2.57
2023-04-20T04:48:43.335Z,2.35
2023-04-20T04:51:09.901Z,2.60
2023-04-20T04:53:37.065Z,2.46
2023-04-20T04:56:04.657Z,2.53
2023-04-20T04:58:31.456Z,2.63
2023-04-20T05:00:58.031Z,2.58
2023-04-20T05:03:24.681Z,2.50
2023-04-20T05:05:51.310Z,2.57
2023-04-20T05:08:17.909Z,2.99
2023-04-20T05:10:44.432Z,2.76
2023-04-20T05:13:10.887Z,2.79
2023-04-20T05:15:37.545Z,2.65
2023-04-20T05:18:04.087Z,2.87
2023-04-20T05:20:30.633Z,3.41
2023-04-20T05:22:57.305Z,3.36
2023-04-20T05:25:23.869Z,4.48
2023-04-20T05:27:50.578Z,7.43
2023-04-20T05:30:21.168Z,6.60
2023-04-20T05:32:50.635Z,6.06
2023-04-20T05:35:18.422Z,4.94
2023-04-20T05:37:45.068Z,4.45
2023-04-20T05:40:11.802Z,4.63
2023-04-20T05:42:38.594Z,3.86
2023-04-20T05:45:05.547Z,3.64
2023-04-20T05:47:32.143Z,3.89
2023-04-20T05:49:58.919Z,4.00
2023-04-20T05:52:25.500Z,3.83
2023-04-20T05:54:52.621Z,3.78
2023-04-20T05:57:19.149Z,3.73
2023-04-20T05:59:45.835Z,3.84
2023-04-20T06:02:12.493Z,4.07
2023-04-20T06:04:39.323Z,3.72
2023-04-20T06:07:06.074Z,3.80
2023-04-20T06:09:32.560Z,4.08
2023-04-20T06:12:00.464Z,4.10
2023-04-20T06:14:26.958Z,3.56
2023-04-20T06:16:53.468Z,3.88
2023-04-20T06:19:19.970Z,3.75
2023-04-20T06:21:46.964Z,3.80
2023-04-20T06:24:13.444Z,6.69
2023-04-20T06:26:40.111Z,8.00
2023-04-20T06:29:06.790Z,5.28
2023-04-20T06:31:33.339Z,5.49
2023-04-20T06:33:59.885Z,4.94
2023-04-20T06:36:27.807Z,6.65
2023-04-20T06:38:55.153Z,6.07
2023-04-20T06:41:21.794Z,4.12
2023-04-20T06:43:48.255Z,4.96
2023-04-20T06:46:14.779Z,5.68
2023-04-20T06:48:41.329Z,5.37
2023-04-20T06:51:07.869Z,4.35
2023-04-20T06:53:34.421Z,5.61
2023-04-20T06:56:00.970Z,5.89
2023-04-20T06:58:27.498Z,5.97
2023-04-20T07:00:54.166Z,5.50
2023-04-20T07:03:21.092Z,4.75
2023-04-20T07:05:47.845Z,4.69
2023-04-20T07:08:16.056Z,4.77
2023-04-20T07:10:42.786Z,4.94
2023-04-20T07:13:09.455Z,4.77
2023-04-20T07:15:36.061Z,5.92
2023-04-20T07:18:03.051Z,4.74
2023-04-20T07:20:29.722Z,4.37
2023-04-20T07:22:56.265Z,5.37
2023-04-20T07:25:23.334Z,5.42
2023-04-20T07:27:49.961Z,5.41
2023-04-20T07:30:16.468Z,4.64
2023-04-20T07:32:43.212Z,4.49
2023-04-20T07:35:10.481Z,5.37
2023-04-20T07:37:37.127Z,4.62
2023-04-20T07:40:06.784Z,4.20
2023-04-20T07:42:34.859Z,4.22
2023-04-20T07:45:01.538Z,3.92
2023-04-20T07:47:28.137Z,4.10
2023-04-20T07:49:54.900Z,4.38
2023-04-20T07:52:21.492Z,4.15
2023-04-20T07:54:48.034Z,4.62
2023-04-20T07:57:15.151Z,4.58
2023-04-20T07:59:41.807Z,4.96
2023-04-20T08:02:08.725Z,4.87
2023-04-20T08:04:38.731Z,4.68
2023-04-20T08:07:05.468Z,5.01
2023-04-20T08:09:32.064Z,4.78
2023-04-20T08:11:58.584Z,4.85
2023-04-20T08:14:25.100Z,4.89
2023-04-20T08:16:51.627Z,5.13
2023-04-20T08:19:18.263Z,4.83
2023-04-20T08:21:45.040Z,4.52
2023-04-20T08:24:13.280Z,4.73
2023-04-20T08:26:40.154Z,4.77
2023-04-20T08:29:06.849Z,4.25
2023-04-20T08:31:33.570Z,4.47
2023-04-20T08:34:00.203Z,4.67
2023-04-20T08:36:28.124Z,5.02
2023-04-20T08:39:15.586Z,4.60
2023-04-20T08:41:42.119Z,4.58
2023-04-20T08:44:08.689Z,4.95
2023-04-20T08:46:35.617Z,5.00
2023-04-20T08:49:05.128Z,5.06
2023-04-20T08:51:32.662Z,5.19
2023-04-20T08:54:06.083Z,5.09
2023-04-20T08:56:36.552Z,5.33
2023-04-20T08:59:05.407Z,4.96
2023-04-20T09:01:36.135Z,5.13
2023-04-20T09:04:03.746Z,5.03
2023-04-20T09:06:31.199Z,4.92
2023-04-20T09:08:57.795Z,5.12
2023-04-20T09:11:29.641Z,4.84
2023-04-20T09:14:00.060Z,5.04
2023-04-20T09:16:27.201Z,4.97
2023-04-20T09:18:54.481Z,5.24
2023-04-20T09:21:22.217Z,5.33
2023-04-20T09:23:59.202Z,5.39
2023-04-20T09:26:26.149Z,4.80
2023-04-20T09:28:52.986Z,5.02
2023-04-20T09:31:21.429Z,4.93
2023-04-20T09:34:01.976Z,5.18
2023-04-20T09:36:36.313Z,5.23
2023-04-20T09:39:30.570Z,4.66
2023-04-20T09:42:04.274Z,4.93
2023-04-20T09:44:32.571Z,4.75
2023-04-20T09:46:59.662Z,5.07
2023-04-20T09:49:27.017Z,5.10
2023-04-20T09:51:54.503Z,5.20
2023-04-20T09:54:21.446Z,5.18
2023-04-20T09:56:49.085Z,5.58
2023-04-20T09:59:19.222Z,5.37
2023-04-20T10:01:46.312Z,5.35
2023-04-20T10:04:14.797Z,5.28
2023-04-20T10:06:52.528Z,5.56
2023-04-20T10:09:24.494Z,5.52
2023-04-20T10:11:54.565Z,5.27
2023-04-20T10:14:23.684Z,5.39
2023-04-20T10:17:04.906Z,5.43
2023-04-20T10:19:39.008Z,5.33
2023-04-20T10:22:06.476Z,5.31
2023-04-20T10:24:33.001Z,5.69
2023-04-20T10:26:59.654Z,6.03
2023-04-20T10:29:29.211Z,6.17
2023-04-20T10:31:55.900Z,6.19
2023-04-20T10:34:32.483Z,6.44
2023-04-20T10:37:09.814Z,6.42
2023-04-20T10:39:38.127Z,6.34
2023-04-20T10:42:04.817Z,6.46
2023-04-20T10:44:31.420Z,6.85
2023-04-20T10:46:57.904Z,6.49
2023-04-20T10:49:29.364Z,6.34
2023-04-20T10:51:56.537Z,6.75
2023-04-20T10:54:23.073Z,6.48
2023-04-20T10:56:51.859Z,6.69
2023-04-20T10:59:23.514Z,7.01
2023-04-20T11:01:51.402Z,7.19
2023-04-20T11:04:18.805Z,7.10
2023-04-20T11:06:48.069Z,7.56
2023-04-20T11:09:19.194Z,8.10
2023-04-20T11:11:46.219Z,7.46
2023-04-20T11:14:13.352Z,7.42
2023-04-20T11:16:51.430Z,7.65
2023-04-20T11:19:47.980Z,7.71
2023-04-20T11:22:21.529Z,7.40
2023-04-20T11:24:48.108Z,7.83
2023-04-20T11:27:22.270Z,8.09
2023-04-20T11:29:57.357Z,11.62
2023-04-20T11:32:24.920Z,10.80
2023-04-20T11:35:06.657Z,7.89
2023-04-20T11:37:34.647Z,8.53
2023-04-20T11:40:08.440Z,8.47
2023-04-20T11:42:35.415Z,8.13
2023-04-20T11:45:02.058Z,8.32
2023-04-20T11:47:28.629Z,7.91
2023-04-20T11:49:55.250Z,7.90
2023-04-20T11:52:21.817Z,7.90
2023-04-20T11:54:48.427Z,7.83
2023-04-20T11:57:15.129Z,7.86
2023-04-20T11:59:43.123Z,7.80
2023-04-20T12:02:10.006Z,7.93
2023-04-20T12:04:36.948Z,7.93
2023-04-20T12:07:03.904Z,8.02
2023-04-20T12:09:30.714Z,8.12
2023-04-20T12:11:57.736Z,7.89
2023-04-20T12:14:24.320Z,7.83
2023-04-20T12:16:50.959Z,8.02
2023-04-20T12:19:17.908Z,7.39
2023-04-20T12:21:46.669Z,7.60
2023-04-20T12:24:13.200Z,7.77
2023-04-20T12:26:40.027Z,14.30
2023-04-20T12:29:07.424Z,19.78
2023-04-20T12:31:35.549Z,8.02
2023-04-20T12:34:02.386Z,7.99
2023-04-20T12:36:29.031Z,7.71
2023-04-20T12:38:56.073Z,7.51
2023-04-20T12:41:23.529Z,7.94
2023-04-20T12:43:51.135Z,8.04
2023-04-20T12:46:17.933Z,8.11
2023-04-20T12:48:47.470Z,8.36
2023-04-20T12:51:14.686Z,7.72
2023-04-20T12:53:41.441Z,8.07
2023-04-20T12:56:08.130Z,7.99
2023-04-20T12:58:34.884Z,8.22
2023-04-20T13:01:01.559Z,8.23
2023-04-20T13:03:28.382Z,7.56
2023-04-20T13:05:55.648Z,7.49
2023-04-20T13:08:22.285Z,7.44
2023-04-20T13:10:48.852Z,7.90
2023-04-20T13:13:15.378Z,8.41
2023-04-20T13:15:41.894Z,7.92
2023-04-20T13:18:09.972Z,8.22
2023-04-20T13:20:37.017Z,7.38
2023-04-20T13:23:04.322Z,8.34
2023-04-20T13:25:35.096Z,7.93
2023-04-20T13:28:03.216Z,7.87
2023-04-20T13:30:29.781Z,8.42
2023-04-20T13:32:56.519Z,7.71
2023-04-20T13:35:24.101Z,7.79
2023-04-20T13:37:50.964Z,7.94
2023-04-20T13:40:17.701Z,8.54
2023-04-20T13:42:44.344Z,8.66
2023-04-20T13:45:11.256Z,8.71
2023-04-20T13:47:38.624Z,7.78
2023-04-20T13:50:05.972Z,7.71
2023-04-20T13:52:32.502Z,8.03
2023-04-20T13:54:59.093Z,11.33
2023-04-20T13:57:25.876Z,10.39
2023-04-20T13:59:53.131Z,8.88
2023-04-20T14:02:19.948Z,8.83
2023-04-20T14:04:46.569Z,9.06
2023-04-20T14:07:13.144Z,9.21
2023-04-20T14:09:39.808Z,9.24
2023-04-20T14:12:06.437Z,9.07
2023-04-20T14:14:32.962Z,9.02
2023-04-20T14:16:59.495Z,8.89
2023-04-20T14:19:26.044Z,8.15
2023-04-20T14:21:52.548Z,7.81
2023-04-20T14:24:19.377Z,8.28
2023-04-20T14:26:46.238Z,8.38
2023-04-20T14:29:12.864Z,8.45
2023-04-20T14:31:39.471Z,8.35
2023-04-20T14:34:06.314Z,9.01
2023-04-20T14:36:33.404Z,8.35
2023-04-20T14:38:59.897Z,8.64
2023-04-20T14:41:26.566Z,8.41
2023-04-20T14:43:53.105Z,8.71
2023-04-20T14:46:19.726Z,8.66
2023-04-20T14:48:46.369Z,8.22
2023-04-20T14:51:13.567Z,8.35
2023-04-20T14:53:40.217Z,9.20
2023-04-20T14:56:06.949Z,9.91
2023-04-20T14:58:33.641Z,10.62
2023-04-20T15:01:00.177Z,9.48
2023-04-20T15:03:27.062Z,8.24
2023-04-20T15:05:57.717Z,8.02
2023-04-20T15:08:24.318Z,8.09
2023-04-20T15:10:55.040Z,9.34
2023-04-20T15:13:21.561Z,9.15
2023-04-20T15:15:49.473Z,8.91
2023-04-20T15:18:17.590Z,9.14
2023-04-20T15:20:44.433Z,9.64
2023-04-20T15:23:11.412Z,10.58
2023-04-20T15:25:38.213Z,10.11
2023-04-20T15:28:04.820Z,10.42
2023-04-20T15:30:31.501Z,9.77
2023-04-20T15:33:05.296Z,10.13
2023-04-20T15:35:32.767Z,9.39
2023-04-20T15:37:59.605Z,9.01
2023-04-20T15:40:27.346Z,9.04
2023-04-20T15:42:55.691Z,9.48
2023-04-20T15:45:22.950Z,8.76
2023-04-20T15:47:50.056Z,9.07
2023-04-20T15:50:17.092Z,8.82
2023-04-20T15:52:43.978Z,8.86
2023-04-20T15:55:11.023Z,8.84
2023-04-20T15:57:37.626Z,8.67
2023-04-20T16:00:04.530Z,8.66
2023-04-20T16:02:31.254Z,8.49
2023-04-20T16:04:58.223Z,8.73
2023-04-20T16:07:24.785Z,9.10
2023-04-20T16:09:51.317Z,9.11
2023-04-20T16:12:17.872Z,8.92
2023-04-20T16:14:44.666Z,8.83
2023-04-20T16:17:11.236Z,8.56
2023-04-20T16:19:37.906Z,8.59
2023-04-20T16:22:04.422Z,8.71
2023-04-20T16:24:31.125Z,8.80
2023-04-20T16:27:01.055Z,8.70
2023-04-20T16:29:27.680Z,8.94
2023-04-20T16:31:54.361Z,9.81
2023-04-20T16:34:20.948Z,9.92
2023-04-20T16:36:47.942Z,9.45
2023-04-20T16:39:14.529Z,9.45
2023-04-20T16:41:41.183Z,9.65
2023-04-20T16:44:07.696Z,9.08
2023-04-20T16:46:34.264Z,9.29
2023-04-20T16:49:00.961Z,9.15
2023-04-20T16:51:29.283Z,9.30
2023-04-20T16:53:56.560Z,8.56
2023-04-20T16:56:23.515Z,7.88
2023-04-20T16:58:50.059Z,8.50
2023-04-20T17:01:16.658Z,9.41
2023-04-20T17:03:43.422Z,8.19
2023-04-20T17:06:10.050Z,9.11
2023-04-20T17:08:40.132Z,9.73
2023-04-20T17:11:06.998Z,8.99
2023-04-20T17:13:33.809Z,8.20
2023-04-20T17:16:00.793Z,8.05
2023-04-20T17:18:27.402Z,8.86
2023-04-20T17:20:54.720Z,8.92
2023-04-20T17:23:21.222Z,9.10
2023-04-20T17:25:49.248Z,8.63
2023-04-20T17:28:15.782Z,8.72
2023-04-20T17:30:42.548Z,8.72
2023-04-20T17:33:09.665Z,9.01
2023-04-20T17:35:37.913Z,8.78
2023-04-20T17:38:04.850Z,8.58
2023-04-20T17:40:31.644Z,7.80
2023-04-20T17:42:58.283Z,8.62
2023-04-20T17:45:24.820Z,8.21
2023-04-20T17:47:53.582Z,8.86
2023-04-20T17:50:20.631Z,8.68
2023-04-20T17:52:47.220Z,8.76
2023-04-20T17:55:14.029Z,8.28
2023-04-20T17:57:40.682Z,8.27
2023-04-20T18:00:08.650Z,8.32
2023-04-20T18:02:35.803Z,7.91
2023-04-20T18:05:02.436Z,8.02
2023-04-20T18:07:29.258Z,7.69
2023-04-20T18:09:56.095Z,7.98
2023-04-20T18:12:22.734Z,8.17
2023-04-20T18:14:49.497Z,8.36
2023-04-20T18:17:16.174Z,7.56
2023-04-20T18:19:42.747Z,8.09
2023-04-20T18:22:09.344Z,7.93
2023-04-20T18:24:35.947Z,8.04
2023-04-20T18:27:02.552Z,8.27
2023-04-20T18:29:29.829Z,8.29
2023-04-20T18:31:59.415Z,8.58
2023-04-20T18:34:30.047Z,8.44
2023-04-20T18:36:57.213Z,8.43
2023-04-20T18:39:24.570Z,8.41
2023-04-20T18:41:51.232Z,8.42
2023-04-20T18:44:18.101Z,8.65
2023-04-20T18:46:45.150Z,9.96
2023-04-20T18:49:11.844Z,9.16
2023-04-20T18:51:38.459Z,8.64
2023-04-20T18:54:05.144Z,8.98
2023-04-20T18:56:32.271Z,8.65
2023-04-20T18:58:59.579Z,8.15
2023-04-20T19:01:27.202Z,8.13
2023-04-20T19:03:54.093Z,8.58
2023-04-20T19:06:20.774Z,8.98
2023-04-20T19:08:47.370Z,9.69
2023-04-20T19:11:13.904Z,10.49
2023-04-20T19:13:44.505Z,11.08
2023-04-20T19:16:12.283Z,11.21
2023-04-20T19:18:39.728Z,11.28
2023-04-20T19:21:06.500Z,11.43
2023-04-20T19:23:35.739Z,11.67
2023-04-20T19:26:02.637Z,12.16
2023-04-20T19:28:29.389Z,12.57
2023-04-20T19:30:56.729Z,12.19
2023-04-20T19:33:23.263Z,11.98
2023-04-20T19:35:52.901Z,12.17
2023-04-20T19:38:20.234Z,11.73
2023-04-20T19:40:47.881Z,12.20
2023-04-20T19:43:14.409Z,11.43
2023-04-20T19:45:41.058Z,11.84
2023-04-20T19:48:07.577Z,11.74
2023-04-20T19:50:34.155Z,12.15
2023-04-20T19:53:01.160Z,11.42
2023-04-20T19:55:27.798Z,11.33
2023-04-20T19:57:54.264Z,11.13
2023-04-20T20:00:21.213Z,10.72
2023-04-20T20:02:47.787Z,11.03
2023-04-20T20:05:14.702Z,10.05
2023-04-20T20:07:41.341Z,10.72
2023-04-20T20:10:08.343Z,10.68
2023-04-20T20:12:35.484Z,10.78
2023-04-20T20:15:03.629Z,10.39
2023-04-20T20:17:30.450Z,10.95
2023-04-20T20:19:57.073Z,10.99
2023-04-20T20:22:23.718Z,10.50
2023-04-20T20:24:51.936Z,10.30
2023-04-20T20:27:18.485Z,10.84
2023-04-20T20:29:44.976Z,10.22
2023-04-20T20:32:11.466Z,10.47
2023-04-20T20:34:38.283Z,10.22
2023-04-20T20:37:04.845Z,10.28
2023-04-20T20:39:32.442Z,10.61
2023-04-20T20:41:59.738Z,10.20
2023-04-20T20:44:27.992Z,10.23
2023-04-20T20:46:54.686Z,10.89
2023-04-20T20:49:21.491Z,10.43
2023-04-20T20:51:47.964Z,10.05
2023-04-20T20:54:14.496Z,10.80
2023-04-20T20:56:41.502Z,10.60
2023-04-20T20:59:08.064Z,11.16
2023-04-20T21:01:34.595Z,11.19
2023-04-20T21:04:01.572Z,11.76
2023-04-20T21:06:28.480Z,11.57
2023-04-20T21:08:55.003Z,11.52
2023-04-20T21:11:21.467Z,12.04
2023-04-20T21:13:48.018Z,12.43
2023-04-20T21:16:14.717Z,12.41
2023-04-20T21:18:41.447Z,12.52
2023-04-20T21:21:12.583Z,12.43
2023-04-20T21:23:39.158Z,12.07
2023-04-20T21:26:05.724Z,12.73
2023-04-20T21:28:32.860Z,12.79
2023-04-20T21:30:59.358Z,12.69
2023-04-20T21:33:26.040Z,12.63
2023-04-20T21:35:52.728Z,12.73
2023-04-20T21:38:19.173Z,13.15
2023-04-20T21:40:45.863Z,13.49
2023-04-20T21:43:12.338Z,13.03
2023-04-20T21:45:38.766Z,13.20
2023-04-20T21:48:05.700Z,13.38
2023-04-20T21:50:32.346Z,13.61
2023-04-20T21:52:58.813Z,13.56
2023-04-20T21:55:25.328Z,13.60
2023-04-20T21:57:51.876Z,13.76
2023-04-20T22:00:18.477Z,13.68
2023-04-20T22:02:45.438Z,13.14
2023-04-20T22:05:12.488Z,13.99
2023-04-20T22:07:39.207Z,14.34
2023-04-20T22:10:06.971Z,13.91
2023-04-20T22:12:42.512Z,14.41
2023-04-20T22:15:13.611Z,14.24
2023-04-20T22:17:40.996Z,14.61
2023-04-20T22:20:09.236Z,13.67
2023-04-20T22:22:36.778Z,13.50
2023-04-20T22:25:04.771Z,14.59
2023-04-20T22:27:31.722Z,13.96
2023-04-20T22:29:58.409Z,13.62
2023-04-20T22:32:25.091Z,14.14
2023-04-20T22:34:51.680Z,13.71
2023-04-20T22:37:18.238Z,13.59
2023-04-20T22:39:45.196Z,13.90
2023-04-20T22:42:11.899Z,14.40
2023-04-20T22:44:38.444Z,14.64
2023-04-20T22:47:05.061Z,14.41
2023-04-20T22:49:32.002Z,14.21
2023-04-20T22:51:58.569Z,14.81
2023-04-20T22:54:25.233Z,15.21
2023-04-20T22:56:51.914Z,15.30
2023-04-20T22:59:18.660Z,15.65
2023-04-20T23:01:45.752Z,16.14
2023-04-20T23:04:12.565Z,15.84
2023-04-20T23:06:39.053Z,16.03
2023-04-20T23:09:08.513Z,16.26
2023-04-20T23:11:38.852Z,16.18
2023-04-20T23:14:06.267Z,16.30
2023-04-20T23:16:33.555Z,15.67
2023-04-20T23:19:00.362Z,16.26
2023-04-20T23:21:28.454Z,16.62
2023-04-20T23:23:57.637Z,16.53
2023-04-20T23:26:24.559Z,16.92
2023-04-20T23:28:52.156Z,16.81
2023-04-20T23:31:19.166Z,16.38
2023-04-20T23:33:45.948Z,16.70
2023-04-20T23:36:12.785Z,17.01
2023-04-20T23:38:40.016Z,17.65
2023-04-20T23:41:10.855Z,16.92
2023-04-20T23:43:38.584Z,16.83
2023-04-20T23:46:05.929Z,16.65
2023-04-20T23:48:32.726Z,17.23
2023-04-20T23:50:59.463Z,17.19
2023-04-20T23:53:26.276Z,17.06
2023-04-20T23:55:55.544Z,16.11
2023-04-20T23:58:26.314Z,16.01
